sensor_id;sensor_type;location;lat;lon;timestamp;P1;durP1;ratioP1;P2;durP2;ratioP2
10902;SDS011;5504;47.312;11.060;2022-10-16T00:00:30;5.43;;;4.93;;
10902;SDS011;5504;47.312;11.060;2022-10-16T00:02:55;8.97;;;5.67;;
10902;SDS011;5504;47.312;11.060;2022-10-16T00:05:21;6.23;;;5.27;;
10902;SDS011;5504;47.312;11.060;2022-10-16T00:07:47;7.10;;;5.47;;
10902;SDS011;5504;47.312;11.060;2022-10-16T00:10:12;6.43;;;5.23;;
10902;SDS011;5504;47.312;11.060;2022-10-16T00:12:38;7.73;;;5.50;;
10902;SDS011;5504;47.312;11.060;2022-10-16T00:15:04;7.40;;;5.17;;
10902;SDS011;5504;47.312;11.060;2022-10-16T00:17:31;7.93;;;4.87;;
10902;SDS011;5504;47.312;11.060;2022-10-16T00:19:56;6.33;;;4.73;;
10902;SDS011;5504;47.312;11.060;2022-10-16T00:22:22;7.23;;;5.47;;
10902;SDS011;5504;47.312;11.060;2022-10-16T00:24:48;6.13;;;5.33;;
10902;SDS011;5504;47.312;11.060;2022-10-16T00:27:14;6.23;;;5.20;;
10902;SDS011;5504;47.312;11.060;2022-10-16T00:29:39;6.83;;;5.20;;
10902;SDS011;5504;47.312;11.060;2022-10-16T00:32:05;6.73;;;5.13;;
10902;SDS011;5504;47.312;11.060;2022-10-16T00:34:31;6.40;;;5.20;;
10902;SDS011;5504;47.312;11.060;2022-10-16T00:36:56;7.10;;;4.90;;
10902;SDS011;5504;47.312;11.060;2022-10-16T00:39:22;6.27;;;5.20;;
10902;SDS011;5504;47.312;11.060;2022-10-16T00:41:48;7.97;;;4.90;;
10902;SDS011;5504;47.312;11.060;2022-10-16T00:47:11;5.03;;;4.57;;
10902;SDS011;5504;47.312;11.060;2022-10-16T00:49:42;6.67;;;4.77;;
10902;SDS011;5504;47.312;11.060;2022-10-16T00:52:08;5.27;;;4.77;;
10902;SDS011;5504;47.312;11.060;2022-10-16T00:54:36;7.97;;;4.73;;
10902;SDS011;5504;47.312;11.060;2022-10-16T00:57:03;7.83;;;4.83;;
10902;SDS011;5504;47.312;11.060;2022-10-16T00:59:32;5.87;;;4.63;;
10902;SDS011;5504;47.312;11.060;2022-10-16T01:02:00;7.07;;;5.13;;
10902;SDS011;5504;47.312;11.060;2022-10-16T01:04:27;7.20;;;4.53;;
10902;SDS011;5504;47.312;11.060;2022-10-16T01:09:41;7.80;;;5.00;;
10902;SDS011;5504;47.312;11.060;2022-10-16T01:15:22;5.43;;;4.57;;
10902;SDS011;5504;47.312;11.060;2022-10-16T01:18:00;5.47;;;4.60;;
10902;SDS011;5504;47.312;11.060;2022-10-16T01:20:50;6.60;;;4.70;;
10902;SDS011;5504;47.312;11.060;2022-10-16T01:26:36;6.10;;;4.73;;
10902;SDS011;5504;47.312;11.060;2022-10-16T01:29:13;6.43;;;4.93;;
10902;SDS011;5504;47.312;11.060;2022-10-16T01:31:47;6.17;;;5.30;;
10902;SDS011;5504;47.312;11.060;2022-10-16T01:34:20;7.20;;;4.90;;
10902;SDS011;5504;47.312;11.060;2022-10-16T01:37:07;6.23;;;5.00;;
10902;SDS011;5504;47.312;11.060;2022-10-16T01:39:39;8.30;;;4.87;;
10902;SDS011;5504;47.312;11.060;2022-10-16T01:42:18;7.57;;;4.60;;
10902;SDS011;5504;47.312;11.060;2022-10-16T01:44:47;6.23;;;4.90;;
10902;SDS011;5504;47.312;11.060;2022-10-16T01:47:14;6.23;;;5.33;;
10902;SDS011;5504;47.312;11.060;2022-10-16T01:49:42;6.70;;;4.70;;
10902;SDS011;5504;47.312;11.060;2022-10-16T01:52:11;5.30;;;4.57;;
10902;SDS011;5504;47.312;11.060;2022-10-16T01:54:42;5.03;;;4.63;;
10902;SDS011;5504;47.312;11.060;2022-10-16T01:57:10;6.30;;;4.63;;
10902;SDS011;5504;47.312;11.060;2022-10-16T01:59:42;5.33;;;4.43;;
10902;SDS011;5504;47.312;11.060;2022-10-16T02:02:11;7.63;;;5.10;;
10902;SDS011;5504;47.312;11.060;2022-10-16T02:04:44;5.20;;;4.70;;
10902;SDS011;5504;47.312;11.060;2022-10-16T02:07:12;6.43;;;4.87;;
10902;SDS011;5504;47.312;11.060;2022-10-16T02:09:39;6.00;;;4.80;;
10902;SDS011;5504;47.312;11.060;2022-10-16T02:12:10;6.27;;;4.63;;
10902;SDS011;5504;47.312;11.060;2022-10-16T02:14:59;5.97;;;4.77;;
10902;SDS011;5504;47.312;11.060;2022-10-16T02:17:24;9.37;;;4.93;;
10902;SDS011;5504;47.312;11.060;2022-10-16T02:19:51;6.83;;;5.30;;
10902;SDS011;5504;47.312;11.060;2022-10-16T02:22:38;6.60;;;4.90;;
10902;SDS011;5504;47.312;11.060;2022-10-16T02:25:14;6.37;;;4.80;;
10902;SDS011;5504;47.312;11.060;2022-10-16T02:33:18;7.13;;;5.40;;
10902;SDS011;5504;47.312;11.060;2022-10-16T02:35:46;6.63;;;5.27;;
10902;SDS011;5504;47.312;11.060;2022-10-16T02:38:15;8.67;;;5.37;;
10902;SDS011;5504;47.312;11.060;2022-10-16T02:40:42;8.17;;;5.07;;
10902;SDS011;5504;47.312;11.060;2022-10-16T02:43:08;5.53;;;4.90;;
10902;SDS011;5504;47.312;11.060;2022-10-16T02:45:34;7.03;;;5.20;;
10902;SDS011;5504;47.312;11.060;2022-10-16T02:48:00;6.80;;;4.80;;
10902;SDS011;5504;47.312;11.060;2022-10-16T02:50:26;7.87;;;5.30;;
10902;SDS011;5504;47.312;11.060;2022-10-16T02:52:52;6.50;;;5.17;;
10902;SDS011;5504;47.312;11.060;2022-10-16T02:55:17;10.10;;;5.20;;
10902;SDS011;5504;47.312;11.060;2022-10-16T02:57:43;8.73;;;4.87;;
10902;SDS011;5504;47.312;11.060;2022-10-16T03:00:09;6.27;;;4.60;;
10902;SDS011;5504;47.312;11.060;2022-10-16T03:02:38;6.40;;;4.80;;
10902;SDS011;5504;47.312;11.060;2022-10-16T03:05:04;6.40;;;4.93;;
10902;SDS011;5504;47.312;11.060;2022-10-16T03:07:30;6.60;;;5.00;;
10902;SDS011;5504;47.312;11.060;2022-10-16T03:09:56;8.33;;;5.07;;
10902;SDS011;5504;47.312;11.060;2022-10-16T03:12:22;5.97;;;4.60;;
10902;SDS011;5504;47.312;11.060;2022-10-16T03:14:48;6.90;;;5.37;;
10902;SDS011;5504;47.312;11.060;2022-10-16T03:17:13;6.43;;;4.90;;
10902;SDS011;5504;47.312;11.060;2022-10-16T03:19:41;7.17;;;4.90;;
10902;SDS011;5504;47.312;11.060;2022-10-16T03:22:07;5.73;;;4.90;;
10902;SDS011;5504;47.312;11.060;2022-10-16T03:24:33;5.23;;;4.73;;
10902;SDS011;5504;47.312;11.060;2022-10-16T03:26:59;6.30;;;5.17;;
10902;SDS011;5504;47.312;11.060;2022-10-16T03:29:25;7.83;;;4.93;;
10902;SDS011;5504;47.312;11.060;2022-10-16T03:31:52;5.53;;;4.70;;
10902;SDS011;5504;47.312;11.060;2022-10-16T03:34:18;6.17;;;4.80;;
10902;SDS011;5504;47.312;11.060;2022-10-16T03:36:44;6.00;;;5.37;;
10902;SDS011;5504;47.312;11.060;2022-10-16T03:39:09;5.47;;;4.77;;
10902;SDS011;5504;47.312;11.060;2022-10-16T03:41:35;7.37;;;5.00;;
10902;SDS011;5504;47.312;11.060;2022-10-16T03:44:01;6.60;;;4.90;;
10902;SDS011;5504;47.312;11.060;2022-10-16T03:46:26;7.47;;;4.80;;
10902;SDS011;5504;47.312;11.060;2022-10-16T03:48:52;7.03;;;4.77;;
10902;SDS011;5504;47.312;11.060;2022-10-16T03:51:18;6.70;;;4.87;;
10902;SDS011;5504;47.312;11.060;2022-10-16T03:53:44;5.80;;;4.60;;
10902;SDS011;5504;47.312;11.060;2022-10-16T03:56:09;6.07;;;4.57;;
10902;SDS011;5504;47.312;11.060;2022-10-16T03:58:35;8.70;;;4.60;;
10902;SDS011;5504;47.312;11.060;2022-10-16T04:01:01;8.03;;;5.10;;
10902;SDS011;5504;47.312;11.060;2022-10-16T04:03:26;6.80;;;5.10;;
10902;SDS011;5504;47.312;11.060;2022-10-16T04:05:52;7.80;;;5.03;;
10902;SDS011;5504;47.312;11.060;2022-10-16T04:08:18;6.53;;;5.00;;
10902;SDS011;5504;47.312;11.060;2022-10-16T04:10:44;6.00;;;4.80;;
10902;SDS011;5504;47.312;11.060;2022-10-16T04:13:10;8.30;;;5.23;;
10902;SDS011;5504;47.312;11.060;2022-10-16T04:15:37;6.07;;;4.90;;
10902;SDS011;5504;47.312;11.060;2022-10-16T04:18:03;5.43;;;4.73;;
10902;SDS011;5504;47.312;11.060;2022-10-16T04:20:29;5.20;;;4.70;;
10902;SDS011;5504;47.312;11.060;2022-10-16T04:22:55;5.87;;;4.77;;
10902;SDS011;5504;47.312;11.060;2022-10-16T04:25:20;6.10;;;4.83;;
10902;SDS011;5504;47.312;11.060;2022-10-16T04:27:46;5.47;;;4.97;;
10902;SDS011;5504;47.312;11.060;2022-10-16T04:30:12;6.60;;;5.27;;
10902;SDS011;5504;47.312;11.060;2022-10-16T04:32:38;7.70;;;4.50;;
10902;SDS011;5504;47.312;11.060;2022-10-16T04:35:04;5.50;;;4.73;;
10902;SDS011;5504;47.312;11.060;2022-10-16T04:37:30;6.53;;;4.80;;
10902;SDS011;5504;47.312;11.060;2022-10-16T04:39:56;7.17;;;4.87;;
10902;SDS011;5504;47.312;11.060;2022-10-16T04:42:22;5.77;;;4.83;;
10902;SDS011;5504;47.312;11.060;2022-10-16T04:44:47;5.77;;;4.73;;
10902;SDS011;5504;47.312;11.060;2022-10-16T04:47:13;5.40;;;4.43;;
10902;SDS011;5504;47.312;11.060;2022-10-16T04:49:39;5.90;;;4.67;;
10902;SDS011;5504;47.312;11.060;2022-10-16T04:52:05;5.80;;;4.40;;
10902;SDS011;5504;47.312;11.060;2022-10-16T04:54:30;7.33;;;4.50;;
10902;SDS011;5504;47.312;11.060;2022-10-16T04:56:56;5.70;;;5.10;;
10902;SDS011;5504;47.312;11.060;2022-10-16T04:59:22;6.30;;;4.40;;
10902;SDS011;5504;47.312;11.060;2022-10-16T05:01:48;5.63;;;4.63;;
10902;SDS011;5504;47.312;11.060;2022-10-16T05:04:14;8.30;;;4.60;;
10902;SDS011;5504;47.312;11.060;2022-10-16T05:06:40;6.10;;;4.43;;
10902;SDS011;5504;47.312;11.060;2022-10-16T05:09:07;6.93;;;4.57;;
10902;SDS011;5504;47.312;11.060;2022-10-16T05:11:33;5.60;;;4.60;;
10902;SDS011;5504;47.312;11.060;2022-10-16T05:13:59;6.43;;;4.70;;
10902;SDS011;5504;47.312;11.060;2022-10-16T05:16:25;6.83;;;5.10;;
10902;SDS011;5504;47.312;11.060;2022-10-16T05:18:51;5.47;;;4.77;;
10902;SDS011;5504;47.312;11.060;2022-10-16T05:21:17;6.20;;;4.77;;
10902;SDS011;5504;47.312;11.060;2022-10-16T05:23:43;7.73;;;4.93;;
10902;SDS011;5504;47.312;11.060;2022-10-16T05:26:09;6.87;;;5.27;;
10902;SDS011;5504;47.312;11.060;2022-10-16T05:28:34;7.10;;;5.10;;
10902;SDS011;5504;47.312;11.060;2022-10-16T05:31:04;7.70;;;5.77;;
10902;SDS011;5504;47.312;11.060;2022-10-16T05:33:30;6.37;;;5.00;;
10902;SDS011;5504;47.312;11.060;2022-10-16T05:35:56;5.67;;;5.07;;
10902;SDS011;5504;47.312;11.060;2022-10-16T05:38:25;7.37;;;5.10;;
10902;SDS011;5504;47.312;11.060;2022-10-16T05:40:51;7.50;;;5.00;;
10902;SDS011;5504;47.312;11.060;2022-10-16T05:43:17;5.73;;;5.03;;
10902;SDS011;5504;47.312;11.060;2022-10-16T05:45:43;6.87;;;5.00;;
10902;SDS011;5504;47.312;11.060;2022-10-16T05:48:09;6.60;;;5.40;;
10902;SDS011;5504;47.312;11.060;2022-10-16T05:50:34;6.43;;;5.30;;
10902;SDS011;5504;47.312;11.060;2022-10-16T05:53:00;5.50;;;4.50;;
10902;SDS011;5504;47.312;11.060;2022-10-16T05:55:26;7.47;;;5.37;;
10902;SDS011;5504;47.312;11.060;2022-10-16T05:57:53;6.00;;;4.90;;
10902;SDS011;5504;47.312;11.060;2022-10-16T06:00:19;6.93;;;4.83;;
10902;SDS011;5504;47.312;11.060;2022-10-16T06:02:45;6.50;;;4.70;;
10902;SDS011;5504;47.312;11.060;2022-10-16T06:05:11;8.00;;;4.63;;
10902;SDS011;5504;47.312;11.060;2022-10-16T06:07:36;6.53;;;4.30;;
10902;SDS011;5504;47.312;11.060;2022-10-16T06:10:02;5.03;;;4.53;;
10902;SDS011;5504;47.312;11.060;2022-10-16T06:12:29;5.97;;;4.87;;
10902;SDS011;5504;47.312;11.060;2022-10-16T06:14:55;10.50;;;5.93;;
10902;SDS011;5504;47.312;11.060;2022-10-16T06:17:20;7.57;;;6.10;;
10902;SDS011;5504;47.312;11.060;2022-10-16T06:19:46;7.87;;;6.20;;
10902;SDS011;5504;47.312;11.060;2022-10-16T06:22:12;6.80;;;6.00;;
10902;SDS011;5504;47.312;11.060;2022-10-16T06:24:37;6.80;;;5.60;;
10902;SDS011;5504;47.312;11.060;2022-10-16T06:27:04;6.40;;;5.73;;
10902;SDS011;5504;47.312;11.060;2022-10-16T06:29:29;5.93;;;4.97;;
10902;SDS011;5504;47.312;11.060;2022-10-16T06:31:55;6.60;;;5.33;;
10902;SDS011;5504;47.312;11.060;2022-10-16T06:34:22;6.20;;;5.13;;
10902;SDS011;5504;47.312;11.060;2022-10-16T06:36:47;7.60;;;5.50;;
10902;SDS011;5504;47.312;11.060;2022-10-16T06:39:13;5.43;;;4.90;;
10902;SDS011;5504;47.312;11.060;2022-10-16T06:41:39;5.70;;;4.70;;
10902;SDS011;5504;47.312;11.060;2022-10-16T06:44:05;6.93;;;5.17;;
10902;SDS011;5504;47.312;11.060;2022-10-16T06:46:32;5.90;;;4.80;;
10902;SDS011;5504;47.312;11.060;2022-10-16T06:48:58;7.97;;;4.83;;
10902;SDS011;5504;47.312;11.060;2022-10-16T06:51:24;5.60;;;4.40;;
10902;SDS011;5504;47.312;11.060;2022-10-16T06:53:51;5.20;;;4.17;;
10902;SDS011;5504;47.312;11.060;2022-10-16T06:58:46;4.53;;;4.13;;
10902;SDS011;5504;47.312;11.060;2022-10-16T07:01:12;6.30;;;4.20;;
10902;SDS011;5504;47.312;11.060;2022-10-16T07:03:39;5.43;;;4.83;;
10902;SDS011;5504;47.312;11.060;2022-10-16T07:06:06;6.80;;;4.63;;
10902;SDS011;5504;47.312;11.060;2022-10-16T07:08:37;4.63;;;4.23;;
10902;SDS011;5504;47.312;11.060;2022-10-16T07:11:10;5.33;;;4.30;;
10902;SDS011;5504;47.312;11.060;2022-10-16T07:13:39;4.83;;;4.23;;
10902;SDS011;5504;47.312;11.060;2022-10-16T07:16:11;5.83;;;4.30;;
10902;SDS011;5504;47.312;11.060;2022-10-16T07:18:40;4.53;;;4.13;;
10902;SDS011;5504;47.312;11.060;2022-10-16T07:21:09;5.03;;;4.53;;
10902;SDS011;5504;47.312;11.060;2022-10-16T07:23:37;5.40;;;4.73;;
10902;SDS011;5504;47.312;11.060;2022-10-16T07:26:03;5.23;;;4.50;;
10902;SDS011;5504;47.312;11.060;2022-10-16T07:28:30;4.60;;;4.20;;
10902;SDS011;5504;47.312;11.060;2022-10-16T07:30:59;5.63;;;4.13;;
10902;SDS011;5504;47.312;11.060;2022-10-16T07:33:29;4.50;;;4.10;;
10902;SDS011;5504;47.312;11.060;2022-10-16T07:35:55;5.40;;;3.90;;
10902;SDS011;5504;47.312;11.060;2022-10-16T07:38:21;4.60;;;4.20;;
10902;SDS011;5504;47.312;11.060;2022-10-16T07:40:47;4.50;;;4.05;;
10902;SDS011;5504;47.312;11.060;2022-10-16T07:43:13;4.17;;;3.60;;
10902;SDS011;5504;47.312;11.060;2022-10-16T07:45:48;3.92;;;3.63;;
10902;SDS011;5504;47.312;11.060;2022-10-16T07:48:15;3.70;;;3.40;;
10902;SDS011;5504;47.312;11.060;2022-10-16T07:50:42;5.50;;;4.00;;
10902;SDS011;5504;47.312;11.060;2022-10-16T07:53:09;7.23;;;4.10;;
10902;SDS011;5504;47.312;11.060;2022-10-16T07:55:35;4.80;;;4.13;;
10902;SDS011;5504;47.312;11.060;2022-10-16T07:58:01;4.67;;;4.20;;
10902;SDS011;5504;47.312;11.060;2022-10-16T08:00:26;4.10;;;3.70;;
10902;SDS011;5504;47.312;11.060;2022-10-16T08:02:52;4.13;;;3.70;;
10902;SDS011;5504;47.312;11.060;2022-10-16T08:05:18;7.50;;;3.90;;
10902;SDS011;5504;47.312;11.060;2022-10-16T08:07:48;6.43;;;4.10;;
10902;SDS011;5504;47.312;11.060;2022-10-16T08:10:15;5.10;;;3.90;;
10902;SDS011;5504;47.312;11.060;2022-10-16T08:12:43;5.90;;;4.03;;
10902;SDS011;5504;47.312;11.060;2022-10-16T08:15:09;4.67;;;3.83;;
10902;SDS011;5504;47.312;11.060;2022-10-16T08:17:35;5.20;;;3.87;;
10902;SDS011;5504;47.312;11.060;2022-10-16T08:20:00;4.97;;;3.80;;
10902;SDS011;5504;47.312;11.060;2022-10-16T08:22:26;5.00;;;3.60;;
10902;SDS011;5504;47.312;11.060;2022-10-16T08:24:52;4.83;;;3.90;;
10902;SDS011;5504;47.312;11.060;2022-10-16T08:27:18;5.28;;;4.18;;
10902;SDS011;5504;47.312;11.060;2022-10-16T08:29:44;4.22;;;3.83;;
10902;SDS011;5504;47.312;11.060;2022-10-16T08:32:09;4.35;;;3.70;;
10902;SDS011;5504;47.312;11.060;2022-10-16T08:34:35;4.60;;;4.00;;
10902;SDS011;5504;47.312;11.060;2022-10-16T08:37:01;3.75;;;3.40;;
10902;SDS011;5504;47.312;11.060;2022-10-16T08:39:27;3.90;;;3.35;;
10902;SDS011;5504;47.312;11.060;2022-10-16T08:50:09;3.83;;;3.33;;
10902;SDS011;5504;47.312;11.060;2022-10-16T08:52:39;5.03;;;3.72;;
10902;SDS011;5504;47.312;11.060;2022-10-16T08:55:08;3.78;;;3.35;;
10902;SDS011;5504;47.312;11.060;2022-10-16T08:57:53;4.55;;;2.83;;
10902;SDS011;5504;47.312;11.060;2022-10-16T09:00:19;3.50;;;3.20;;
10902;SDS011;5504;47.312;11.060;2022-10-16T09:02:49;4.13;;;3.25;;
10902;SDS011;5504;47.312;11.060;2022-10-16T09:08:30;4.47;;;3.50;;
10902;SDS011;5504;47.312;11.060;2022-10-16T09:16:43;4.18;;;3.78;;
10902;SDS011;5504;47.312;11.060;2022-10-16T09:21:57;3.60;;;3.30;;
10902;SDS011;5504;47.312;11.060;2022-10-16T09:24:26;4.63;;;3.90;;
10902;SDS011;5504;47.312;11.060;2022-10-16T09:26:52;5.10;;;3.65;;
10902;SDS011;5504;47.312;11.060;2022-10-16T09:29:19;4.30;;;3.90;;
10902;SDS011;5504;47.312;11.060;2022-10-16T09:31:46;3.97;;;3.67;;
10902;SDS011;5504;47.312;11.060;2022-10-16T09:34:23;5.40;;;3.90;;
10902;SDS011;5504;47.312;11.060;2022-10-16T09:37:03;3.83;;;3.42;;
10902;SDS011;5504;47.312;11.060;2022-10-16T09:39:52;4.05;;;3.20;;
10902;SDS011;5504;47.312;11.060;2022-10-16T09:42:30;3.63;;;3.33;;
10902;SDS011;5504;47.312;11.060;2022-10-16T09:44:59;3.75;;;3.45;;
10902;SDS011;5504;47.312;11.060;2022-10-16T09:47:26;3.22;;;3.03;;
10902;SDS011;5504;47.312;11.060;2022-10-16T09:50:27;3.67;;;3.20;;
10902;SDS011;5504;47.312;11.060;2022-10-16T09:52:51;4.00;;;3.20;;
10902;SDS011;5504;47.312;11.060;2022-10-16T09:55:53;3.80;;;3.47;;
10902;SDS011;5504;47.312;11.060;2022-10-16T09:58:22;3.70;;;3.35;;
10902;SDS011;5504;47.312;11.060;2022-10-16T10:00:49;3.97;;;3.60;;
10902;SDS011;5504;47.312;11.060;2022-10-16T10:06:16;3.92;;;3.60;;
10902;SDS011;5504;47.312;11.060;2022-10-16T10:09:02;4.78;;;3.55;;
10902;SDS011;5504;47.312;11.060;2022-10-16T10:17:01;4.90;;;4.15;;
10902;SDS011;5504;47.312;11.060;2022-10-16T10:19:38;3.63;;;3.35;;
10902;SDS011;5504;47.312;11.060;2022-10-16T10:38:45;4.25;;;3.85;;
10902;SDS011;5504;47.312;11.060;2022-10-16T10:59:28;4.00;;;3.60;;
10902;SDS011;5504;47.312;11.060;2022-10-16T11:04:29;3.42;;;3.17;;
10902;SDS011;5504;47.312;11.060;2022-10-16T11:07:19;4.20;;;3.70;;
10902;SDS011;5504;47.312;11.060;2022-10-16T11:09:53;5.03;;;3.72;;
10902;SDS011;5504;47.312;11.060;2022-10-16T11:12:42;4.10;;;3.53;;
10902;SDS011;5504;47.312;11.060;2022-10-16T11:15:18;4.35;;;3.58;;
10902;SDS011;5504;47.312;11.060;2022-10-16T11:18:03;3.75;;;3.45;;
10902;SDS011;5504;47.312;11.060;2022-10-16T11:20:31;3.40;;;3.10;;
10902;SDS011;5504;47.312;11.060;2022-10-16T11:23:00;4.05;;;3.20;;
10902;SDS011;5504;47.312;11.060;2022-10-16T11:25:41;3.72;;;3.42;;
10902;SDS011;5504;47.312;11.060;2022-10-16T11:30:44;3.42;;;3.13;;
10902;SDS011;5504;47.312;11.060;2022-10-16T11:35:53;3.38;;;3.08;;
10902;SDS011;5504;47.312;11.060;2022-10-16T11:41:15;3.58;;;3.20;;
10902;SDS011;5504;47.312;11.060;2022-10-16T11:43:58;3.80;;;3.50;;
10902;SDS011;5504;47.312;11.060;2022-10-16T11:46:38;3.78;;;3.38;;
10902;SDS011;5504;47.312;11.060;2022-10-16T11:49:15;3.75;;;3.40;;
10902;SDS011;5504;47.312;11.060;2022-10-16T11:55:01;3.28;;;3.03;;
10902;SDS011;5504;47.312;11.060;2022-10-16T11:57:38;3.70;;;3.28;;
10902;SDS011;5504;47.312;11.060;2022-10-16T12:00:51;3.78;;;3.45;;
10902;SDS011;5504;47.312;11.060;2022-10-16T12:06:06;3.80;;;3.50;;
10902;SDS011;5504;47.312;11.060;2022-10-16T12:08:37;3.58;;;3.30;;
10902;SDS011;5504;47.312;11.060;2022-10-16T12:11:23;3.40;;;3.10;;
10902;SDS011;5504;47.312;11.060;2022-10-16T12:16:37;3.65;;;3.30;;
10902;SDS011;5504;47.312;11.060;2022-10-16T12:21:40;3.33;;;3.10;;
10902;SDS011;5504;47.312;11.060;2022-10-16T12:24:18;3.92;;;3.63;;
10902;SDS011;5504;47.312;11.060;2022-10-16T12:27:20;4.72;;;3.30;;
10902;SDS011;5504;47.312;11.060;2022-10-16T12:29:54;3.38;;;3.17;;
10902;SDS011;5504;47.312;11.060;2022-10-16T12:32:30;3.55;;;3.25;;
10902;SDS011;5504;47.312;11.060;2022-10-16T12:34:58;4.03;;;3.63;;
10902;SDS011;5504;47.312;11.060;2022-10-16T12:37:35;4.13;;;3.72;;
10902;SDS011;5504;47.312;11.060;2022-10-16T12:42:48;3.97;;;3.67;;
10902;SDS011;5504;47.312;11.060;2022-10-16T12:48:02;4.10;;;3.78;;
10902;SDS011;5504;47.312;11.060;2022-10-16T12:50:42;4.63;;;4.22;;
10902;SDS011;5504;47.312;11.060;2022-10-16T12:53:19;4.38;;;3.97;;
10902;SDS011;5504;47.312;11.060;2022-10-16T13:06:35;4.32;;;3.92;;
10902;SDS011;5504;47.312;11.060;2022-10-16T13:23:01;3.88;;;3.40;;
10902;SDS011;5504;47.312;11.060;2022-10-16T13:28:12;4.15;;;3.20;;
10902;SDS011;5504;47.312;11.060;2022-10-16T13:30:42;3.63;;;3.33;;
10902;SDS011;5504;47.312;11.060;2022-10-16T13:33:16;3.67;;;3.38;;
10902;SDS011;5504;47.312;11.060;2022-10-16T13:35:52;3.75;;;3.40;;
10902;SDS011;5504;47.312;11.060;2022-10-16T13:38:22;3.70;;;3.40;;
10902;SDS011;5504;47.312;11.060;2022-10-16T13:40:54;3.50;;;3.20;;
10902;SDS011;5504;47.312;11.060;2022-10-16T13:43:22;3.80;;;3.50;;
10902;SDS011;5504;47.312;11.060;2022-10-16T13:45:52;3.80;;;3.50;;
10902;SDS011;5504;47.312;11.060;2022-10-16T13:48:19;3.95;;;3.65;;
10902;SDS011;5504;47.312;11.060;2022-10-16T13:50:44;3.90;;;3.60;;
10902;SDS011;5504;47.312;11.060;2022-10-16T13:53:13;3.85;;;3.55;;
10902;SDS011;5504;47.312;11.060;2022-10-16T13:55:39;4.22;;;3.85;;
10902;SDS011;5504;47.312;11.060;2022-10-16T13:58:11;4.15;;;3.85;;
10902;SDS011;5504;47.312;11.060;2022-10-16T14:00:38;4.47;;;4.07;;
10902;SDS011;5504;47.312;11.060;2022-10-16T14:03:07;4.47;;;3.83;;
10902;SDS011;5504;47.312;11.060;2022-10-16T14:06:21;3.80;;;3.50;;
10902;SDS011;5504;47.312;11.060;2022-10-16T14:08:29;3.72;;;3.33;;
10902;SDS011;5504;47.312;11.060;2022-10-16T14:10:56;4.10;;;3.70;;
10902;SDS011;5504;47.312;11.060;2022-10-16T14:15:59;4.00;;;3.70;;
10902;SDS011;5504;47.312;11.060;2022-10-16T14:18:32;4.30;;;4.00;;
10902;SDS011;5504;47.312;11.060;2022-10-16T14:21:05;4.45;;;3.78;;
10902;SDS011;5504;47.312;11.060;2022-10-16T14:23:36;3.80;;;3.50;;
10902;SDS011;5504;47.312;11.060;2022-10-16T14:28:38;3.70;;;3.40;;
10902;SDS011;5504;47.312;11.060;2022-10-16T14:34:02;7.03;;;3.67;;
10902;SDS011;5504;47.312;11.060;2022-10-16T14:36:28;4.60;;;4.10;;
10902;SDS011;5504;47.312;11.060;2022-10-16T14:41:29;3.88;;;3.50;;
10902;SDS011;5504;47.312;11.060;2022-10-16T14:43:57;3.97;;;3.58;;
10902;SDS011;5504;47.312;11.060;2022-10-16T14:46:34;4.18;;;3.65;;
10902;SDS011;5504;47.312;11.060;2022-10-16T14:51:38;4.20;;;3.80;;
10902;SDS011;5504;47.312;11.060;2022-10-16T14:54:09;5.90;;;3.60;;
10902;SDS011;5504;47.312;11.060;2022-10-16T14:59:13;5.35;;;3.67;;
10902;SDS011;5504;47.312;11.060;2022-10-16T15:01:44;9.00;;;4.90;;
10902;SDS011;5504;47.312;11.060;2022-10-16T15:04:11;7.10;;;4.20;;
10902;SDS011;5504;47.312;11.060;2022-10-16T15:06:38;8.50;;;4.03;;
10902;SDS011;5504;47.312;11.060;2022-10-16T15:09:03;7.10;;;3.80;;
10902;SDS011;5504;47.312;11.060;2022-10-16T15:11:29;4.65;;;3.40;;
10902;SDS011;5504;47.312;11.060;2022-10-16T15:13:57;6.18;;;4.38;;
10902;SDS011;5504;47.312;11.060;2022-10-16T15:16:23;5.45;;;3.88;;
10902;SDS011;5504;47.312;11.060;2022-10-16T15:18:49;9.18;;;3.80;;
10902;SDS011;5504;47.312;11.060;2022-10-16T15:21:25;3.55;;;3.25;;
10902;SDS011;5504;47.312;11.060;2022-10-16T15:23:53;5.13;;;3.80;;
10902;SDS011;5504;47.312;11.060;2022-10-16T15:26:19;4.18;;;3.70;;
10902;SDS011;5504;47.312;11.060;2022-10-16T15:28:45;6.35;;;3.70;;
10902;SDS011;5504;47.312;11.060;2022-10-16T15:31:11;8.00;;;3.78;;
10902;SDS011;5504;47.312;11.060;2022-10-16T15:33:36;5.32;;;3.72;;
10902;SDS011;5504;47.312;11.060;2022-10-16T15:36:02;6.85;;;3.58;;
10902;SDS011;5504;47.312;11.060;2022-10-16T15:38:28;6.82;;;3.80;;
10902;SDS011;5504;47.312;11.060;2022-10-16T15:40:55;4.15;;;3.40;;
10902;SDS011;5504;47.312;11.060;2022-10-16T15:43:21;6.00;;;3.78;;
10902;SDS011;5504;47.312;11.060;2022-10-16T15:45:58;7.85;;;3.80;;
10902;SDS011;5504;47.312;11.060;2022-10-16T15:48:24;4.78;;;4.07;;
10902;SDS011;5504;47.312;11.060;2022-10-16T15:50:50;4.88;;;3.42;;
10902;SDS011;5504;47.312;11.060;2022-10-16T15:53:15;5.15;;;3.72;;
10902;SDS011;5504;47.312;11.060;2022-10-16T15:55:41;7.03;;;4.25;;
10902;SDS011;5504;47.312;11.060;2022-10-16T15:58:07;6.47;;;3.95;;
10902;SDS011;5504;47.312;11.060;2022-10-16T16:00:32;6.55;;;3.40;;
10902;SDS011;5504;47.312;11.060;2022-10-16T16:02:58;4.80;;;3.72;;
10902;SDS011;5504;47.312;11.060;2022-10-16T16:05:24;5.40;;;3.58;;
10902;SDS011;5504;47.312;11.060;2022-10-16T16:07:50;5.50;;;3.63;;
10902;SDS011;5504;47.312;11.060;2022-10-16T16:10:16;4.70;;;3.50;;
10902;SDS011;5504;47.312;11.060;2022-10-16T16:12:42;5.15;;;3.50;;
10902;SDS011;5504;47.312;11.060;2022-10-16T16:15:08;4.93;;;3.58;;
10902;SDS011;5504;47.312;11.060;2022-10-16T16:17:34;8.13;;;3.80;;
10902;SDS011;5504;47.312;11.060;2022-10-16T16:20:01;6.53;;;4.00;;
10902;SDS011;5504;47.312;11.060;2022-10-16T16:22:28;6.07;;;3.53;;
10902;SDS011;5504;47.312;11.060;2022-10-16T16:24:54;5.03;;;3.93;;
10902;SDS011;5504;47.312;11.060;2022-10-16T16:27:20;5.77;;;3.73;;
10902;SDS011;5504;47.312;11.060;2022-10-16T16:29:46;4.27;;;3.87;;
10902;SDS011;5504;47.312;11.060;2022-10-16T16:32:12;5.20;;;3.90;;
10902;SDS011;5504;47.312;11.060;2022-10-16T16:34:38;5.97;;;4.00;;
10902;SDS011;5504;47.312;11.060;2022-10-16T16:37:04;5.47;;;4.07;;
10902;SDS011;5504;47.312;11.060;2022-10-16T16:39:30;6.07;;;3.87;;
10902;SDS011;5504;47.312;11.060;2022-10-16T16:41:56;4.23;;;3.53;;
10902;SDS011;5504;47.312;11.060;2022-10-16T16:44:23;6.30;;;3.50;;
10902;SDS011;5504;47.312;11.060;2022-10-16T16:46:49;4.70;;;4.20;;
10902;SDS011;5504;47.312;11.060;2022-10-16T16:49:15;6.10;;;4.10;;
10902;SDS011;5504;47.312;11.060;2022-10-16T16:51:41;7.50;;;4.67;;
10902;SDS011;5504;47.312;11.060;2022-10-16T16:54:07;6.30;;;3.93;;
10902;SDS011;5504;47.312;11.060;2022-10-16T16:56:34;5.57;;;3.70;;
10902;SDS011;5504;47.312;11.060;2022-10-16T16:59:00;7.80;;;4.13;;
10902;SDS011;5504;47.312;11.060;2022-10-16T17:01:27;4.93;;;4.20;;
10902;SDS011;5504;47.312;11.060;2022-10-16T17:03:54;7.30;;;4.07;;
10902;SDS011;5504;47.312;11.060;2022-10-16T17:06:22;6.30;;;3.80;;
10902;SDS011;5504;47.312;11.060;2022-10-16T17:08:49;8.10;;;4.10;;
10902;SDS011;5504;47.312;11.060;2022-10-16T17:11:17;5.83;;;3.93;;
10902;SDS011;5504;47.312;11.060;2022-10-16T17:13:44;6.53;;;4.20;;
10902;SDS011;5504;47.312;11.060;2022-10-16T17:16:10;5.47;;;3.90;;
10902;SDS011;5504;47.312;11.060;2022-10-16T17:18:36;4.30;;;3.60;;
10902;SDS011;5504;47.312;11.060;2022-10-16T17:21:03;4.60;;;4.00;;
10902;SDS011;5504;47.312;11.060;2022-10-16T17:23:31;7.33;;;4.07;;
10902;SDS011;5504;47.312;11.060;2022-10-16T17:26:02;5.17;;;4.00;;
10902;SDS011;5504;47.312;11.060;2022-10-16T17:28:39;5.73;;;4.30;;
10902;SDS011;5504;47.312;11.060;2022-10-16T17:31:12;8.93;;;4.53;;